createdAt,value
2022-11-02T00:02:09.109Z,86.40
2022-11-02T00:04:36.694Z,86.40
2022-11-02T00:07:04.981Z,86.30
2022-11-02T00:09:32.526Z,86.20
2022-11-02T00:12:00.108Z,86.10
2022-11-02T00:14:27.819Z,86.00
2022-11-02T00:16:55.461Z,85.80
2022-11-02T00:19:23.363Z,85.90
2022-11-02T00:21:50.877Z,85.70
2022-11-02T00:24:18.392Z,85.80
2022-11-02T00:26:46.353Z,85.60
2022-11-02T00:29:14.711Z,85.30
2022-11-02T00:31:42.639Z,85.10
2022-11-02T00:34:10.200Z,85.00
2022-11-02T00:36:37.697Z,84.70
2022-11-02T00:39:05.179Z,84.70
2022-11-02T00:41:33.025Z,84.60
2022-11-02T00:44:00.823Z,84.50
2022-11-02T00:46:28.690Z,84.30
2022-11-02T00:48:57.056Z,84.30
2022-11-02T00:51:25.343Z,84.10
2022-11-02T00:53:53.513Z,83.80
2022-11-02T00:56:21.763Z,83.50
2022-11-02T00:58:49.316Z,83.20
2022-11-02T01:01:17.736Z,82.50
2022-11-02T01:03:45.302Z,82.40
2022-11-02T01:06:14.514Z,81.80
2022-11-02T01:08:46.012Z,81.50
2022-11-02T01:11:15.332Z,81.40
2022-11-02T01:13:45.077Z,80.20
2022-11-02T01:16:13.385Z,80.70
2022-11-02T01:18:41.499Z,80.60
2022-11-02T01:21:09.676Z,80.40
2022-11-02T01:23:38.811Z,80.30
2022-11-02T01:26:07.503Z,80.30
2022-11-02T01:28:37.489Z,80.30
2022-11-02T01:31:05.382Z,78.80
2022-11-02T01:33:33.686Z,79.20
2022-11-02T01:36:03.707Z,79.20
2022-11-02T01:38:32.088Z,79.40
2022-11-02T01:41:00.098Z,78.60
2022-11-02T01:43:32.145Z,78.20
2022-11-02T01:46:01.664Z,78.20
2022-11-02T01:48:34.117Z,78.30
2022-11-02T01:51:03.400Z,77.80
2022-11-02T01:53:32.495Z,79.20
2022-11-02T01:56:07.091Z,78.30
2022-11-02T01:58:40.463Z,78.70
2022-11-02T02:01:10.135Z,78.60
2022-11-02T02:03:40.276Z,77.70
2022-11-02T02:06:10.948Z,77.50
2022-11-02T02:08:41.688Z,77.50
2022-11-02T02:11:28.049Z,77.60
2022-11-02T02:13:58.317Z,77.60
2022-11-02T02:16:33.593Z,77.90
2022-11-02T02:19:04.069Z,77.80
2022-11-02T02:21:47.629Z,77.80
2022-11-02T02:24:22.865Z,78.00
2022-11-02T02:26:50.903Z,77.40
2022-11-02T02:29:44.650Z,77.20
2022-11-02T02:32:30.834Z,77.30
2022-11-02T02:35:17.253Z,75.60
2022-11-02T02:38:02.899Z,76.70
2022-11-02T02:40:38.022Z,75.30
2022-11-02T02:43:10.662Z,74.00
2022-11-02T02:45:47.744Z,74.10
2022-11-02T02:48:22.410Z,73.00
2022-11-02T02:50:51.478Z,74.10
2022-11-02T02:53:22.962Z,74.30
2022-11-02T02:55:51.692Z,73.70
2022-11-02T02:58:23.054Z,74.10
2022-11-02T03:00:53.548Z,73.20
2022-11-02T03:03:25.947Z,74.50
2022-11-02T03:06:16.893Z,74.40
2022-11-02T03:08:50.191Z,74.70
2022-11-02T03:11:31.352Z,73.00
2022-11-02T03:14:08.407Z,73.90
2022-11-02T03:16:45.519Z,73.40
2022-11-02T03:19:17.183Z,72.90
2022-11-02T03:21:47.228Z,72.20
2022-11-02T03:24:31.012Z,73.40
2022-11-02T03:27:10.828Z,73.00
2022-11-02T03:29:42.697Z,72.70
2022-11-02T03:32:20.190Z,71.80
2022-11-02T03:34:50.522Z,73.30
2022-11-02T03:37:23.476Z,73.20
2022-11-02T03:39:53.032Z,70.60
2022-11-02T03:42:28.643Z,71.90
2022-11-02T03:45:04.758Z,72.50
2022-11-02T03:47:35.148Z,74.60
2022-11-02T03:50:03.888Z,73.50
2022-11-02T03:52:34.940Z,67.80
2022-11-02T03:55:05.902Z,69.70
2022-11-02T03:57:37.209Z,72.70
2022-11-02T04:00:13.587Z,72.10
2022-11-02T04:02:43.946Z,69.50
2022-11-02T04:05:13.543Z,71.20
2022-11-02T04:08:02.846Z,65.50
2022-11-02T04:10:31.607Z,67.40
2022-11-02T04:13:17.673Z,65.70
2022-11-02T04:15:45.945Z,67.70
2022-11-02T04:18:31.609Z,71.00
2022-11-02T04:20:59.507Z,70.00
2022-11-02T04:23:47.011Z,70.20
2022-11-02T04:26:14.991Z,70.40
2022-11-02T04:28:46.996Z,70.70
2022-11-02T04:31:15.184Z,69.20
2022-11-02T04:33:43.795Z,68.00
2022-11-02T04:36:12.154Z,69.40
2022-11-02T04:38:45.768Z,67.70
2022-11-02T04:41:34.207Z,71.20
2022-11-02T04:44:02.261Z,72.00
2022-11-02T04:46:31.108Z,70.80
2022-11-02T04:49:05.360Z,70.90
2022-11-02T04:51:33.202Z,70.00
2022-11-02T04:54:01.029Z,71.10
2022-11-02T04:56:29.550Z,68.70
2022-11-02T04:58:58.641Z,66.20
2022-11-02T05:01:27.975Z,69.00
2022-11-02T05:03:56.460Z,67.50
2022-11-02T05:06:24.787Z,66.40
2022-11-02T05:08:53.179Z,66.80
2022-11-02T05:11:21.329Z,66.60
2022-11-02T05:13:51.346Z,67.30
2022-11-02T05:16:20.839Z,68.60
2022-11-02T05:18:51.518Z,65.70
2022-11-02T05:21:20.323Z,68.90
2022-11-02T05:23:48.381Z,69.90
2022-11-02T05:26:20.062Z,69.50
2022-11-02T05:28:48.946Z,69.10
2022-11-02T05:31:17.763Z,69.40
2022-11-02T05:33:56.120Z,67.30
2022-11-02T05:36:23.897Z,66.20
2022-11-02T05:38:56.326Z,67.90
2022-11-02T05:41:25.094Z,66.60
2022-11-02T05:43:53.992Z,66.70
2022-11-02T05:46:22.039Z,67.70
2022-11-02T05:48:49.659Z,68.10
2022-11-02T05:51:18.266Z,68.60
2022-11-02T05:53:46.086Z,68.30
2022-11-02T05:56:16.591Z,69.10
2022-11-02T05:58:47.321Z,66.30
2022-11-02T06:01:15.063Z,68.10
2022-11-02T06:03:42.754Z,69.30
2022-11-02T06:06:15.007Z,69.30
2022-11-02T06:08:43.021Z,68.20
2022-11-02T06:11:12.175Z,65.30
2022-11-02T06:13:41.238Z,68.10
2022-11-02T06:16:09.875Z,67.50
2022-11-02T06:18:38.277Z,65.30
2022-11-02T06:21:06.823Z,66.80
2022-11-02T06:23:34.456Z,63.10
2022-11-02T06:26:02.379Z,64.20
2022-11-02T06:28:31.240Z,64.90
2022-11-02T06:30:59.720Z,65.40
2022-11-02T06:33:30.444Z,64.50
2022-11-02T06:35:58.116Z,63.50
2022-11-02T06:38:25.786Z,68.00
2022-11-02T06:41:04.429Z,67.00
2022-11-02T06:43:33.985Z,68.50
2022-11-02T06:46:01.947Z,65.90
2022-11-02T06:48:34.915Z,68.50
2022-11-02T06:51:07.895Z,66.70
2022-11-02T06:53:36.006Z,66.60
2022-11-02T06:56:03.760Z,67.70
2022-11-02T06:58:34.949Z,66.20
2022-11-02T07:01:04.218Z,66.00
2022-11-02T07:03:33.982Z,66.70
2022-11-02T07:06:02.063Z,67.30
2022-11-02T07:08:30.022Z,66.20
2022-11-02T07:10:57.978Z,65.80
2022-11-02T07:13:26.744Z,66.50
2022-11-02T07:15:55.394Z,66.40
2022-11-02T07:18:23.301Z,66.00
2022-11-02T07:20:52.629Z,65.70
2022-11-02T07:23:24.663Z,67.30
2022-11-02T07:25:52.324Z,66.80
2022-11-02T07:28:19.904Z,66.40
2022-11-02T07:30:47.521Z,65.80
2022-11-02T07:33:15.312Z,66.00
2022-11-02T07:35:43.466Z,63.50
2022-11-02T07:38:11.488Z,64.40
2022-11-02T07:40:41.173Z,64.30
2022-11-02T07:43:16.197Z,66.30
2022-11-02T07:45:44.504Z,66.60
2022-11-02T07:48:12.141Z,67.20
2022-11-02T07:50:39.710Z,66.90
2022-11-02T07:53:07.781Z,64.20
2022-11-02T07:55:35.590Z,65.10
2022-11-02T07:58:04.319Z,64.90
2022-11-02T08:00:38.853Z,66.10
2022-11-02T08:03:09.303Z,66.90
2022-11-02T08:05:45.105Z,67.40
2022-11-02T08:08:14.465Z,64.30
2022-11-02T08:10:42.738Z,65.20
2022-11-02T08:13:11.888Z,66.90
2022-11-02T08:15:39.499Z,65.30
2022-11-02T08:18:09.758Z,65.00
2022-11-02T08:20:37.408Z,64.40
2022-11-02T08:23:07.555Z,66.60
2022-11-02T08:25:35.659Z,63.10
2022-11-02T08:28:04.027Z,63.80
2022-11-02T08:30:32.788Z,64.90
2022-11-02T08:33:04.810Z,64.10
2022-11-02T08:35:32.848Z,65.00
2022-11-02T08:38:00.515Z,65.40
2022-11-02T08:40:28.444Z,66.60
2022-11-02T08:42:59.734Z,66.90
2022-11-02T08:45:27.549Z,65.50
2022-11-02T08:47:55.378Z,64.20
2022-11-02T08:50:23.961Z,65.60
2022-11-02T08:52:56.232Z,64.50
2022-11-02T08:55:24.540Z,61.10
2022-11-02T08:57:56.625Z,62.50
2022-11-02T09:00:26.776Z,63.50
2022-11-02T09:03:08.659Z,64.60
2022-11-02T09:05:37.664Z,63.60
2022-11-02T09:08:06.923Z,64.60
2022-11-02T09:10:37.851Z,65.80
2022-11-02T09:13:07.182Z,65.60
2022-11-02T09:15:37.620Z,64.20
2022-11-02T09:18:07.339Z,63.60
2022-11-02T09:20:35.650Z,64.50
2022-11-02T09:23:06.381Z,64.70
2022-11-02T09:25:34.345Z,64.90
2022-11-02T09:28:02.341Z,65.20
2022-11-02T09:30:29.985Z,65.50
2022-11-02T09:33:03.887Z,64.70
2022-11-02T09:35:33.450Z,65.80
2022-11-02T09:38:03.956Z,67.10
2022-11-02T09:41:01.047Z,67.50
2022-11-02T09:43:47.013Z,66.20
2022-11-02T09:46:17.618Z,64.00
2022-11-02T09:48:51.373Z,66.70
2022-11-02T09:51:21.832Z,65.80
2022-11-02T09:53:54.289Z,65.60
2022-11-02T09:56:25.571Z,64.90
2022-11-02T09:59:05.125Z,64.50
2022-11-02T10:01:39.644Z,64.70
2022-11-02T10:04:16.671Z,65.60
2022-11-02T10:06:48.599Z,66.20
2022-11-02T10:09:28.612Z,66.70
2022-11-02T10:11:59.258Z,65.70
2022-11-02T10:14:53.295Z,66.30
2022-11-02T10:17:26.353Z,60.10
2022-11-02T10:19:58.660Z,59.80
2022-11-02T10:22:33.108Z,60.10
2022-11-02T10:25:02.651Z,61.80
2022-11-02T10:27:32.822Z,60.60
2022-11-02T10:30:18.479Z,62.50
2022-11-02T10:32:47.703Z,63.20
2022-11-02T10:35:51.041Z,62.00
2022-11-02T10:38:24.252Z,61.40
2022-11-02T10:41:03.007Z,63.00
2022-11-02T10:43:33.685Z,63.40
2022-11-02T10:46:18.255Z,64.10
2022-11-02T10:49:04.081Z,64.30
2022-11-02T10:51:31.982Z,64.50
2022-11-02T10:54:00.413Z,62.80
2022-11-02T10:56:32.137Z,63.60
2022-11-02T10:58:59.887Z,64.10
2022-11-02T11:01:28.443Z,64.40
2022-11-02T11:03:57.593Z,64.80
2022-11-02T11:06:27.915Z,65.00
2022-11-02T11:09:00.028Z,64.70
2022-11-02T11:11:39.780Z,65.10
2022-11-02T11:20:07.274Z,65.80
2022-11-02T11:22:35.037Z,66.10
2022-11-02T11:25:11.554Z,66.50
2022-11-02T11:27:45.386Z,67.00
2022-11-02T11:30:59.395Z,67.10
2022-11-02T11:33:21.688Z,67.30
2022-11-02T11:35:50.102Z,67.50
2022-11-02T11:38:19.312Z,67.80
2022-11-02T11:40:49.139Z,68.20
2022-11-02T11:43:18.345Z,68.50
2022-11-02T11:46:01.930Z,68.70
2022-11-02T11:48:38.833Z,69.00
2022-11-02T11:51:25.210Z,69.30
2022-11-02T11:54:11.675Z,69.60
2022-11-02T11:56:39.205Z,69.90
2022-11-02T11:59:18.680Z,70.40
2022-11-02T12:01:46.407Z,70.70
2022-11-02T12:04:14.114Z,70.80
2022-11-02T12:06:56.222Z,71.20
2022-11-02T12:09:29.516Z,71.30
2022-11-02T12:12:12.321Z,71.30
2022-11-02T12:14:39.898Z,71.70
2022-11-02T12:17:17.145Z,71.90
2022-11-02T12:20:03.256Z,73.00
2022-11-02T12:22:50.284Z,73.20
2022-11-02T12:25:17.815Z,73.10
2022-11-02T12:27:47.726Z,73.20
2022-11-02T12:30:25.462Z,73.40
2022-11-02T12:33:11.373Z,74.30
2022-11-02T12:36:14.482Z,73.90
2022-11-02T12:38:51.084Z,74.30
2022-11-02T12:41:26.581Z,74.50
2022-11-02T12:44:02.835Z,74.50
2022-11-02T12:46:47.599Z,75.10
2022-11-02T12:49:22.003Z,75.30
2022-11-02T12:52:00.786Z,75.10
2022-11-02T12:54:39.158Z,75.30
2022-11-02T12:57:21.105Z,75.70
2022-11-02T13:00:06.070Z,76.50
2022-11-02T13:02:50.415Z,76.60
2022-11-02T13:05:28.457Z,76.20
2022-11-02T13:08:06.845Z,76.10
2022-11-02T13:10:42.506Z,77.20
2022-11-02T13:13:13.940Z,77.20
2022-11-02T13:15:43.808Z,77.60
2022-11-02T13:18:16.915Z,77.40
2022-11-02T13:21:13.886Z,77.00
2022-11-02T13:23:47.980Z,77.60
2022-11-02T13:26:30.561Z,78.00
2022-11-02T13:29:18.442Z,77.90
2022-11-02T13:31:57.012Z,78.30
2022-11-02T13:34:42.114Z,78.60
2022-11-02T13:37:16.697Z,78.30
2022-11-02T13:39:54.785Z,78.70
2022-11-02T13:42:23.740Z,78.80
2022-11-02T13:44:59.917Z,79.00
2022-11-02T13:47:27.933Z,79.30
2022-11-02T13:49:59.528Z,79.40
2022-11-02T13:52:27.505Z,79.30
2022-11-02T13:55:01.004Z,79.10
2022-11-02T13:57:30.034Z,79.30
2022-11-02T13:59:59.650Z,80.00
2022-11-02T14:02:31.492Z,79.50
2022-11-02T14:04:59.788Z,80.30
2022-11-02T14:07:39.600Z,80.30
2022-11-02T14:10:20.469Z,79.70
2022-11-02T14:12:49.638Z,79.80
2022-11-02T14:15:20.801Z,79.90
2022-11-02T14:17:55.960Z,80.20
2022-11-02T14:20:46.388Z,80.30
2022-11-02T14:23:41.009Z,80.80
2022-11-02T14:26:29.746Z,81.20
2022-11-02T14:28:58.769Z,80.90
2022-11-02T14:31:39.331Z,80.90
2022-11-02T14:34:27.476Z,80.90
2022-11-02T14:37:02.094Z,80.40
2022-11-02T14:39:45.391Z,80.60
2022-11-02T14:42:13.288Z,80.90
2022-11-02T14:44:54.743Z,80.60
2022-11-02T14:47:28.794Z,80.60
2022-11-02T14:50:02.588Z,80.40
2022-11-02T14:52:31.431Z,80.60
2022-11-02T14:55:09.204Z,80.20
2022-11-02T14:57:39.843Z,80.40
2022-11-02T15:00:33.966Z,80.30
2022-11-02T15:03:03.408Z,80.20
2022-11-02T15:05:38.632Z,80.40
2022-11-02T15:08:11.559Z,80.40
2022-11-02T15:10:44.361Z,80.30
2022-11-02T15:13:22.895Z,80.40
2022-11-02T15:15:56.104Z,80.30
2022-11-02T15:18:25.247Z,80.40
2022-11-02T15:21:11.547Z,80.70
2022-11-02T15:24:19.296Z,80.90
2022-11-02T15:27:00.523Z,80.70
2022-11-02T15:29:32.220Z,81.10
2022-11-02T15:32:02.131Z,81.10
2022-11-02T15:34:46.230Z,81.50
2022-11-02T15:37:20.696Z,81.30
2022-11-02T15:39:50.568Z,81.60
2022-11-02T15:42:29.378Z,81.70
2022-11-02T15:45:09.265Z,82.10
2022-11-02T15:47:48.261Z,81.80
2022-11-02T15:50:52.400Z,81.90
2022-11-02T15:53:25.583Z,82.10
2022-11-02T15:56:18.364Z,82.10
2022-11-02T15:58:58.395Z,81.80
2022-11-02T16:01:27.364Z,82.50
2022-11-02T16:03:58.668Z,82.10
2022-11-02T16:06:34.688Z,82.20
2022-11-02T16:09:03.865Z,82.40
2022-11-02T16:11:32.183Z,82.50
2022-11-02T16:14:19.297Z,83.10
2022-11-02T16:16:47.931Z,83.50
2022-11-02T16:19:22.284Z,83.60
2022-11-02T16:21:50.259Z,83.50
2022-11-02T16:24:18.444Z,83.90
2022-11-02T16:26:48.827Z,84.70
2022-11-02T16:29:22.630Z,84.10
2022-11-02T16:31:50.205Z,84.40
2022-11-02T16:34:22.786Z,84.20
2022-11-02T16:36:50.594Z,86.00
2022-11-02T16:39:23.574Z,85.50
2022-11-02T16:41:52.708Z,85.80
2022-11-02T16:44:30.054Z,85.10
2022-11-02T16:47:17.512Z,84.90
2022-11-02T16:49:51.195Z,84.30
2022-11-02T16:52:18.724Z,84.10
2022-11-02T16:54:46.821Z,84.20
2022-11-02T16:57:17.645Z,84.30
2022-11-02T16:59:51.919Z,84.50
2022-11-02T17:02:21.899Z,84.40
2022-11-02T17:07:25.710Z,84.80
2022-11-02T17:09:54.293Z,84.80
2022-11-02T17:12:24.298Z,85.50
2022-11-02T17:14:52.660Z,86.10
2022-11-02T17:17:22.970Z,86.40
2022-11-02T17:19:59.655Z,86.10
2022-11-02T17:22:29.602Z,86.20
2022-11-02T17:25:23.101Z,86.10
2022-11-02T17:27:51.393Z,85.90
2022-11-02T17:30:29.116Z,86.10
2022-11-02T17:33:19.333Z,86.80
2022-11-02T17:35:48.014Z,86.80
2022-11-02T17:38:15.798Z,87.60
2022-11-02T17:40:43.461Z,87.70
2022-11-02T17:43:11.943Z,87.60
2022-11-02T17:45:40.485Z,87.50
2022-11-02T17:48:10.116Z,87.60
2022-11-02T17:50:39.794Z,88.10
2022-11-02T17:53:12.850Z,88.10
2022-11-02T17:55:40.562Z,88.20
2022-11-02T17:58:08.408Z,87.80
2022-11-02T18:00:36.611Z,88.40
2022-11-02T18:03:05.468Z,88.10
2022-11-02T18:05:36.811Z,88.70
2022-11-02T18:08:05.382Z,88.70
2022-11-02T18:10:34.555Z,88.30
2022-11-02T18:13:02.351Z,88.00
2022-11-02T18:15:31.705Z,88.20
2022-11-02T18:18:02.620Z,88.70
2022-11-02T18:20:31.558Z,88.20
2022-11-02T18:23:00.907Z,88.70
2022-11-02T18:25:31.676Z,89.00
2022-11-02T18:27:59.861Z,88.50
2022-11-02T18:30:28.602Z,89.10
2022-11-02T18:32:56.878Z,89.70
2022-11-02T18:35:24.923Z,89.60
2022-11-02T18:37:52.468Z,89.70
2022-11-02T18:40:21.113Z,89.40
2022-11-02T18:42:48.613Z,89.50
2022-11-02T18:45:17.231Z,88.70
2022-11-02T18:47:44.879Z,89.00
2022-11-02T18:50:14.283Z,88.90
2022-11-02T18:52:45.822Z,89.20
2022-11-02T18:55:13.306Z,90.20
2022-11-02T18:57:40.812Z,90.10
2022-11-02T19:00:09.307Z,90.00
2022-11-02T19:02:38.276Z,89.50
2022-11-02T19:05:26.642Z,90.10
2022-11-02T19:08:12.489Z,90.20
2022-11-02T19:10:41.472Z,90.40
2022-11-02T19:13:09.874Z,90.10
2022-11-02T19:15:42.225Z,90.30
2022-11-02T19:18:10.207Z,90.10
2022-11-02T19:20:37.833Z,90.40
2022-11-02T19:23:05.469Z,90.40
2022-11-02T19:25:32.995Z,90.80
2022-11-02T19:28:00.610Z,90.50
2022-11-02T19:30:28.962Z,90.80
2022-11-02T19:32:57.538Z,91.00
2022-11-02T19:35:25.000Z,90.90
2022-11-02T19:37:56.579Z,90.60
2022-11-02T19:40:24.138Z,91.20
2022-11-02T19:42:51.763Z,91.20
2022-11-02T19:45:20.105Z,90.90
2022-11-02T19:47:47.677Z,91.00
2022-11-02T19:50:15.275Z,91.50
2022-11-02T19:52:42.815Z,91.90
2022-11-02T19:55:10.423Z,92.20
2022-11-02T19:57:37.953Z,92.30
2022-11-02T20:00:05.677Z,92.00
2022-11-02T20:02:33.235Z,91.80
2022-11-02T20:05:02.244Z,91.90
2022-11-02T20:07:29.753Z,92.10
2022-11-02T20:09:59.671Z,92.20
2022-11-02T20:12:27.461Z,91.90
2022-11-02T20:14:55.077Z,91.70
2022-11-02T20:17:31.930Z,92.20
2022-11-02T20:20:03.813Z,92.50
2022-11-02T20:22:31.415Z,92.70
2022-11-02T20:24:58.947Z,92.30
2022-11-02T20:27:26.873Z,92.20
2022-11-02T20:29:54.424Z,92.30
2022-11-02T20:32:22.599Z,92.60
2022-11-02T20:34:50.149Z,92.70
2022-11-02T20:37:17.908Z,92.80
2022-11-02T20:39:45.454Z,93.10
2022-11-02T20:42:12.970Z,93.00
2022-11-02T20:44:40.489Z,93.30
2022-11-02T20:47:08.031Z,93.30
2022-11-02T20:49:51.411Z,93.40
2022-11-02T20:52:19.308Z,93.20
2022-11-02T20:54:46.872Z,93.50
2022-11-02T20:57:14.472Z,93.70
2022-11-02T20:59:41.992Z,93.60
2022-11-02T21:02:12.724Z,94.00
2022-11-02T21:04:40.748Z,93.90
2022-11-02T21:07:08.351Z,93.70
2022-11-02T21:09:35.867Z,93.80
2022-11-02T21:12:21.466Z,93.80
2022-11-02T21:14:50.555Z,93.70
2022-11-02T21:17:18.088Z,94.20
2022-11-02T21:19:47.651Z,94.30
2022-11-02T21:22:15.952Z,94.20
2022-11-02T21:24:43.564Z,94.20
2022-11-02T21:27:11.897Z,94.20
2022-11-02T21:29:39.451Z,94.10
2022-11-02T21:32:08.469Z,93.90
2022-11-02T21:34:35.978Z,94.20
2022-11-02T21:37:06.754Z,94.20
2022-11-02T21:39:35.441Z,93.90
2022-11-02T21:42:03.732Z,93.90
2022-11-02T21:44:31.590Z,93.80
2022-11-02T21:46:59.111Z,93.80
2022-11-02T21:49:26.643Z,94.00
2022-11-02T21:51:54.394Z,93.70
2022-11-02T21:54:21.973Z,93.60
2022-11-02T21:56:51.376Z,93.60
2022-11-02T21:59:18.910Z,93.60
2022-11-02T22:01:46.724Z,93.90
2022-11-02T22:04:32.199Z,93.90
2022-11-02T22:07:00.209Z,93.80
2022-11-02T22:09:28.610Z,93.90
2022-11-02T22:12:14.592Z,94.20
2022-11-02T22:14:42.707Z,93.90
2022-11-02T22:17:21.891Z,93.90
2022-11-02T22:19:56.297Z,93.70
2022-11-02T22:22:24.211Z,93.80
2022-11-02T22:24:51.741Z,94.10
2022-11-02T22:27:19.295Z,93.90
2022-11-02T22:29:47.638Z,94.20
2022-11-02T22:32:15.119Z,94.40
2022-11-02T22:34:43.994Z,94.00
2022-11-02T22:37:40.253Z,94.30
2022-11-02T22:40:08.030Z,94.40
2022-11-02T22:42:39.768Z,94.50
2022-11-02T22:45:10.450Z,94.00
2022-11-02T22:47:38.757Z,93.80
2022-11-02T22:50:06.616Z,94.10
2022-11-02T22:52:34.200Z,93.80
2022-11-02T22:55:01.963Z,93.80
2022-11-02T22:57:29.763Z,93.50
2022-11-02T22:59:57.304Z,93.60
2022-11-02T23:02:25.971Z,93.60
2022-11-02T23:04:53.527Z,93.70
2022-11-02T23:07:21.073Z,93.60
2022-11-02T23:09:48.553Z,93.70
2022-11-02T23:12:16.052Z,93.80
2022-11-02T23:14:43.893Z,93.70
2022-11-02T23:17:11.421Z,93.90
2022-11-02T23:19:39.581Z,93.80
2022-11-02T23:22:27.020Z,93.80
2022-11-02T23:25:14.359Z,94.00
2022-11-02T23:28:04.846Z,93.40
2022-11-02T23:30:53.580Z,93.80
2022-11-02T23:33:21.620Z,94.10
2022-11-02T23:36:07.899Z,94.30
2022-11-02T23:38:53.715Z,94.20
2022-11-02T23:41:22.220Z,94.40
2022-11-02T23:43:49.913Z,94.40
2022-11-02T23:46:20.275Z,94.60
2022-11-02T23:48:51.058Z,94.40
2022-11-02T23:51:38.450Z,94.30
2022-11-02T23:54:24.385Z,94.40
2022-11-02T23:56:52.150Z,94.30
2022-11-02T23:59:19.918Z,94.00
